Time;durP1;ratioP1;P1;durP2;ratioP2;P2;SDS_P1;SDS_P2;PMS_P1;PMS_P2;Temp;Humidity;BMP_temperature;BMP_pressure;BME280_temperature;BME280_humidity;BME280_pressure;Samples;Min_cycle;Max_cycle;Signal;HPM_P1;HPM_P2
2023/04/30 00:00:38;;;;;;;13.43;5.03;;;;;;;;;;5125374;28;20047;-74
2023/04/30 00:03:09;;;;;;;9.43;4.40;;;;;;;;;;5124225;28;20058;-74
2023/04/30 00:05:40;;;;;;;11.32;4.18;;;;;;;;;;5125347;28;20508;-74
2023/04/30 00:08:11;;;;;;;10.45;4.45;;;;;;;;;;5124951;27;20074;-73
2023/04/30 00:10:41;;;;;;;6.43;4.05;;;;;;;;;;5129363;27;20051;-73
2023/04/30 00:13:17;;;;;;;5.78;3.85;;;;;;;;;;5127484;27;20485;-74
2023/04/30 00:15:47;;;;;;;6.72;4.40;;;;;;;;;;5129250;27;20047;-74
2023/04/30 00:18:20;;;;;;;11.50;4.53;;;;;;;;;;5127950;27;20054;-73
2023/04/30 00:20:53;;;;;;;7.15;4.18;;;;;;;;;;5127940;27;20394;-73
2023/04/30 00:23:23;;;;;;;10.43;4.35;;;;;;;;;;5127998;27;20059;-74
2023/04/30 00:25:53;;;;;;;9.88;4.63;;;;;;;;;;5127075;27;20062;-76
2023/04/30 00:28:23;;;;;;;8.82;4.75;;;;;;;;;;5128717;27;20413;-72
2023/04/30 00:30:54;;;;;;;5.72;3.97;;;;;;;;;;5127032;27;20413;-73
2023/04/30 00:33:25;;;;;;;9.52;4.78;;;;;;;;;;5128948;27;20148;-72
2023/04/30 00:35:56;;;;;;;9.45;4.85;;;;;;;;;;5128638;27;20405;-72
2023/04/30 00:38:26;;;;;;;9.93;5.28;;;;;;;;;;5129168;27;20043;-73
2023/04/30 00:40:57;;;;;;;11.27;5.55;;;;;;;;;;5126730;27;20055;-74
2023/04/30 00:43:28;;;;;;;13.38;5.05;;;;;;;;;;5127984;27;20058;-73
2023/04/30 00:45:59;;;;;;;12.10;4.60;;;;;;;;;;5128907;27;20051;-73
2023/04/30 00:48:29;;;;;;;9.77;5.43;;;;;;;;;;5127063;27;20043;-73
2023/04/30 00:51:02;;;;;;;13.05;5.00;;;;;;;;;;5127082;27;20055;-73
2023/04/30 00:53:35;;;;;;;8.80;4.70;;;;;;;;;;5128975;27;20074;-73
2023/04/30 00:56:09;;;;;;;12.27;5.20;;;;;;;;;;5127130;27;20520;-73
2023/04/30 00:58:40;;;;;;;10.15;5.07;;;;;;;;;;5128249;27;20039;-74
2023/04/30 01:01:12;;;;;;;6.97;4.20;;;;;;;;;;5128628;27;20047;-73
2023/04/30 01:03:44;;;;;;;12.20;4.63;;;;;;;;;;5128314;27;20083;-72
2023/04/30 01:06:15;;;;;;;5.88;4.47;;;;;;;;;;5128004;27;20497;-75
2023/04/30 01:08:47;;;;;;;6.65;4.22;;;;;;;;;;5128514;27;20054;-73
2023/04/30 01:11:21;;;;;;;11.48;4.25;;;;;;;;;;5128137;27;20043;-73
2023/04/30 01:14:20;;;;;;;7.05;4.85;;;;;;;;;;5126385;27;20429;-75
2023/04/30 01:17:30;;;;;;;6.85;4.40;;;;;;;;;;5126895;27;20051;-74
2023/04/30 01:20:02;;;;;;;6.40;4.72;;;;;;;;;;5082750;27;20058;-74
2023/04/30 01:22:44;;;;;;;7.75;3.83;;;;;;;;;;5124963;27;20506;-74
2023/04/30 01:25:39;;;;;;;5.70;4.00;;;;;;;;;;5126327;27;20059;-73
2023/04/30 01:28:22;;;;;;;7.38;4.20;;;;;;;;;;5123734;27;20054;-72
2023/04/30 01:30:53;;;;;;;6.30;4.00;;;;;;;;;;5123567;27;20043;-73
2023/04/30 01:33:23;;;;;;;5.60;3.63;;;;;;;;;;5108911;27;20058;-73
2023/04/30 01:36:07;;;;;;;7.53;4.38;;;;;;;;;;5126384;27;20088;-73
2023/04/30 01:38:47;;;;;;;8.15;4.53;;;;;;;;;;5127764;27;20047;-72
2023/04/30 01:41:40;;;;;;;9.05;4.15;;;;;;;;;;5109378;27;20072;-73
2023/04/30 01:44:18;;;;;;;5.35;3.53;;;;;;;;;;5127267;27;20058;-74
2023/04/30 01:47:23;;;;;;;7.45;4.22;;;;;;;;;;5127621;27;20051;-74
2023/04/30 01:50:13;;;;;;;6.10;4.13;;;;;;;;;;5126425;27;20051;-73
2023/04/30 01:52:58;;;;;;;6.13;3.88;;;;;;;;;;5127317;27;20494;-74
2023/04/30 01:55:37;;;;;;;7.30;4.55;;;;;;;;;;5127399;27;20072;-73
2023/04/30 01:58:11;;;;;;;7.40;4.32;;;;;;;;;;5126391;27;20047;-74
2023/04/30 02:00:42;;;;;;;7.70;4.65;;;;;;;;;;5127017;27;20062;-74
2023/04/30 02:03:12;;;;;;;7.47;5.43;;;;;;;;;;5126371;27;20058;-73
2023/04/30 02:05:44;;;;;;;7.05;4.20;;;;;;;;;;5108579;27;20051;-74
2023/04/30 02:08:14;;;;;;;7.28;5.03;;;;;;;;;;5126901;27;20054;-73
2023/04/30 02:10:45;;;;;;;7.43;4.90;;;;;;;;;;5125105;27;20391;-73
2023/04/30 02:13:17;;;;;;;7.45;5.32;;;;;;;;;;5125481;27;20069;-74
2023/04/30 02:15:48;;;;;;;7.20;4.18;;;;;;;;;;5123364;27;20383;-73
2023/04/30 02:18:18;;;;;;;9.98;4.70;;;;;;;;;;5123974;27;20054;-73
2023/04/30 02:20:48;;;;;;;7.55;4.75;;;;;;;;;;5123823;27;20498;-74
2023/04/30 02:23:19;;;;;;;9.32;5.50;;;;;;;;;;5124059;27;20047;-74
2023/04/30 02:25:50;;;;;;;12.50;5.32;;;;;;;;;;5124150;27;20055;-74
2023/04/30 02:28:20;;;;;;;9.45;5.90;;;;;;;;;;5125835;27;20051;-73
2023/04/30 02:30:51;;;;;;;7.47;4.97;;;;;;;;;;5125332;27;20051;-72
2023/04/30 02:33:21;;;;;;;10.18;5.90;;;;;;;;;;5127426;27;20039;-74
2023/04/30 02:35:54;;;;;;;9.75;5.80;;;;;;;;;;5125460;27;20501;-73
2023/04/30 02:38:26;;;;;;;11.85;6.28;;;;;;;;;;5126479;27;20074;-74
2023/04/30 02:40:56;;;;;;;7.03;5.25;;;;;;;;;;5126374;27;20051;-73
2023/04/30 02:43:26;;;;;;;10.15;5.97;;;;;;;;;;5125925;27;20055;-74
2023/04/30 02:45:57;;;;;;;10.18;5.82;;;;;;;;;;5126559;27;20058;-73
2023/04/30 02:48:28;;;;;;;10.65;6.35;;;;;;;;;;5125685;27;20051;-73
2023/04/30 02:50:58;;;;;;;9.18;6.10;;;;;;;;;;5125117;27;20051;-73
2023/04/30 02:53:28;;;;;;;9.00;5.97;;;;;;;;;;5108782;27;20429;-74
2023/04/30 02:55:58;;;;;;;6.80;5.32;;;;;;;;;;5126343;27;20042;-74
2023/04/30 02:58:28;;;;;;;9.80;5.88;;;;;;;;;;5126500;27;20043;-73
2023/04/30 03:00:59;;;;;;;8.63;5.65;;;;;;;;;;5125178;27;20058;-73
2023/04/30 03:03:29;;;;;;;7.57;5.13;;;;;;;;;;5124948;27;20062;-74
2023/04/30 03:05:59;;;;;;;7.55;6.03;;;;;;;;;;5124893;27;20051;-74
2023/04/30 03:08:30;;;;;;;8.50;6.30;;;;;;;;;;5125208;27;20047;-73
2023/04/30 03:11:05;;;;;;;9.80;6.10;;;;;;;;;;5126699;27;20039;-74
2023/04/30 03:13:35;;;;;;;8.63;6.43;;;;;;;;;;5124893;27;20051;-73
2023/04/30 03:16:05;;;;;;;10.98;6.38;;;;;;;;;;5126326;27;20031;-73
2023/04/30 03:18:36;;;;;;;8.30;6.38;;;;;;;;;;5124223;27;20047;-73
2023/04/30 03:21:08;;;;;;;8.35;6.05;;;;;;;;;;5126034;27;20047;-73
2023/04/30 03:23:38;;;;;;;10.00;6.30;;;;;;;;;;5124409;27;20047;-72
2023/04/30 03:26:08;;;;;;;7.28;5.43;;;;;;;;;;5126068;27;20049;-74
2023/04/30 03:28:39;;;;;;;10.30;6.80;;;;;;;;;;5125394;27;20537;-73
2023/04/30 03:31:09;;;;;;;10.05;6.35;;;;;;;;;;5125794;28;20059;-73
2023/04/30 03:33:40;;;;;;;7.38;5.75;;;;;;;;;;5124700;27;20054;-73
2023/04/30 03:36:10;;;;;;;7.80;5.47;;;;;;;;;;5125687;28;20043;-73
2023/04/30 03:38:41;;;;;;;9.52;6.07;;;;;;;;;;5124806;27;20055;-74
2023/04/30 03:41:12;;;;;;;10.20;6.15;;;;;;;;;;5126148;28;20055;-73
2023/04/30 03:43:43;;;;;;;7.75;6.25;;;;;;;;;;5127410;27;20051;-74
2023/04/30 03:46:13;;;;;;;8.65;5.72;;;;;;;;;;5130561;27;20089;-73
2023/04/30 03:48:44;;;;;;;7.22;5.30;;;;;;;;;;5128239;27;20051;-72
2023/04/30 03:51:16;;;;;;;11.15;6.63;;;;;;;;;;5130354;27;20039;-74
2023/04/30 03:53:46;;;;;;;10.27;6.07;;;;;;;;;;5129942;27;20402;-73
2023/04/30 03:56:16;;;;;;;7.82;5.22;;;;;;;;;;5128830;27;20054;-73
2023/04/30 03:58:46;;;;;;;7.47;5.80;;;;;;;;;;5129939;27;20043;-73
2023/04/30 04:01:51;;;;;;;9.20;5.40;;;;;;;;;;5128615;27;20058;-72
2023/04/30 04:04:24;;;;;;;9.23;6.10;;;;;;;;;;5128369;27;20054;-74
2023/04/30 04:06:54;;;;;;;7.28;6.10;;;;;;;;;;5128958;27;20106;-73
2023/04/30 04:09:24;;;;;;;10.85;5.47;;;;;;;;;;5129817;27;20414;-74
2023/04/30 04:11:55;;;;;;;8.00;5.93;;;;;;;;;;5129084;27;20043;-74
2023/04/30 04:14:25;;;;;;;9.15;6.40;;;;;;;;;;5128245;27;20054;-73
2023/04/30 04:16:59;;;;;;;11.07;6.30;;;;;;;;;;5128112;27;20047;-73
2023/04/30 04:19:29;;;;;;;8.43;5.63;;;;;;;;;;5128109;27;20054;-73
2023/04/30 04:22:00;;;;;;;7.57;5.40;;;;;;;;;;5128682;27;20039;-73
2023/04/30 04:24:30;;;;;;;9.02;5.90;;;;;;;;;;5129601;27;20044;-73
2023/04/30 04:27:02;;;;;;;10.80;5.78;;;;;;;;;;5129227;27;20513;-73
2023/04/30 04:29:33;;;;;;;8.50;5.82;;;;;;;;;;5128233;27;20047;-73
2023/04/30 04:32:04;;;;;;;14.40;5.85;;;;;;;;;;5127484;27;20058;-76
2023/04/30 04:34:37;;;;;;;14.40;6.18;;;;;;;;;;5127865;27;20501;-73
2023/04/30 04:37:08;;;;;;;10.75;5.82;;;;;;;;;;5129163;27;20047;-73
2023/04/30 04:39:40;;;;;;;8.05;5.32;;;;;;;;;;5127847;27;20635;-73
2023/04/30 04:42:10;;;;;;;8.15;5.55;;;;;;;;;;5127749;27;20054;-73
2023/04/30 04:44:40;;;;;;;11.32;6.35;;;;;;;;;;5127885;27;20394;-73
2023/04/30 04:47:11;;;;;;;10.35;6.35;;;;;;;;;;5128634;27;20054;-73
2023/04/30 04:49:43;;;;;;;8.10;6.07;;;;;;;;;;5127509;27;20059;-73
2023/04/30 04:52:13;;;;;;;8.85;5.15;;;;;;;;;;5129027;27;20616;-73
2023/04/30 04:54:43;;;;;;;8.07;5.60;;;;;;;;;;5126857;27;20505;-74
2023/04/30 04:57:13;;;;;;;9.50;6.10;;;;;;;;;;5127941;27;20051;-72
2023/04/30 04:59:44;;;;;;;8.77;5.85;;;;;;;;;;5127847;27;20522;-72
2023/04/30 05:02:15;;;;;;;7.45;5.50;;;;;;;;;;5128499;27;20047;-72
2023/04/30 05:04:49;;;;;;;8.45;6.20;;;;;;;;;;5127530;27;20074;-73
2023/04/30 05:07:19;;;;;;;9.73;5.43;;;;;;;;;;5127309;27;20540;-73
2023/04/30 05:09:49;;;;;;;6.78;5.15;;;;;;;;;;5128337;27;20043;-74
2023/04/30 05:12:20;;;;;;;8.95;5.15;;;;;;;;;;5127328;27;20047;-73
2023/04/30 05:14:51;;;;;;;8.50;5.40;;;;;;;;;;5127947;27;20043;-73
2023/04/30 05:17:21;;;;;;;10.15;5.60;;;;;;;;;;5128093;27;20046;-73
2023/04/30 05:19:52;;;;;;;10.20;6.13;;;;;;;;;;5127812;27;20042;-73
2023/04/30 05:22:24;;;;;;;7.38;5.20;;;;;;;;;;5127927;27;20047;-73
2023/04/30 05:24:55;;;;;;;7.93;5.00;;;;;;;;;;5126852;27;20697;-73
2023/04/30 05:27:26;;;;;;;10.70;5.90;;;;;;;;;;5128070;27;20054;-73
2023/04/30 05:29:56;;;;;;;7.88;5.80;;;;;;;;;;5126709;27;20151;-74
2023/04/30 05:32:27;;;;;;;7.50;5.25;;;;;;;;;;5127392;27;20043;-74
2023/04/30 05:34:58;;;;;;;8.45;5.70;;;;;;;;;;5127464;27;20414;-73
2023/04/30 05:37:27;;;;;;;7.88;5.78;;;;;;;;;;5126778;27;20059;-73
2023/04/30 05:39:58;;;;;;;6.72;5.50;;;;;;;;;;5128073;27;20039;-73
2023/04/30 05:42:28;;;;;;;8.50;5.82;;;;;;;;;;5127436;27;20525;-73
2023/04/30 05:45:00;;;;;;;9.35;5.93;;;;;;;;;;5128354;27;20690;-73
2023/04/30 05:47:30;;;;;;;9.98;5.63;;;;;;;;;;5127353;27;20058;-73
2023/04/30 05:50:00;;;;;;;9.65;6.07;;;;;;;;;;5126052;27;20051;-73
2023/04/30 05:52:31;;;;;;;9.38;5.57;;;;;;;;;;5127524;27;20054;-73
2023/04/30 05:55:02;;;;;;;7.47;5.40;;;;;;;;;;5127414;27;20043;-72
2023/04/30 05:57:34;;;;;;;7.13;4.80;;;;;;;;;;5127685;27;20050;-73
2023/04/30 06:00:07;;;;;;;8.20;6.15;;;;;;;;;;5127104;27;20593;-73
2023/04/30 06:02:40;;;;;;;9.45;5.05;;;;;;;;;;5128015;27;20078;-73
2023/04/30 06:05:11;;;;;;;7.88;5.20;;;;;;;;;;5126813;27;20054;-74
2023/04/30 06:07:45;;;;;;;7.55;6.28;;;;;;;;;;5126739;27;20047;-73
2023/04/30 06:10:16;;;;;;;11.07;5.03;;;;;;;;;;5127281;27;20043;-73
2023/04/30 06:12:46;;;;;;;6.07;5.15;;;;;;;;;;5127065;27;20039;-73
2023/04/30 06:15:17;;;;;;;8.38;5.95;;;;;;;;;;5127838;27;20043;-73
2023/04/30 06:17:48;;;;;;;5.88;5.00;;;;;;;;;;5127265;27;20054;-73
2023/04/30 06:20:19;;;;;;;10.65;5.43;;;;;;;;;;5125631;27;20058;-73
2023/04/30 06:22:49;;;;;;;6.90;5.20;;;;;;;;;;5126121;27;20062;-73
2023/04/30 06:25:20;;;;;;;8.48;5.07;;;;;;;;;;5127005;27;20449;-73
2023/04/30 06:27:52;;;;;;;7.60;4.55;;;;;;;;;;5126956;27;20063;-73
2023/04/30 06:30:22;;;;;;;7.53;4.78;;;;;;;;;;5126734;27;20043;-73
2023/04/30 06:32:53;;;;;;;7.90;4.38;;;;;;;;;;5126423;27;20051;-74
2023/04/30 06:35:24;;;;;;;7.45;5.15;;;;;;;;;;5126688;27;20529;-73
2023/04/30 06:37:55;;;;;;;7.75;5.32;;;;;;;;;;5127000;27;20036;-73
2023/04/30 06:40:26;;;;;;;8.75;5.53;;;;;;;;;;5126396;27;20058;-73
2023/04/30 06:42:57;;;;;;;5.72;4.20;;;;;;;;;;5126458;27;20055;-73
2023/04/30 06:45:27;;;;;;;6.18;4.45;;;;;;;;;;5126391;27;20057;-74
2023/04/30 06:47:58;;;;;;;6.90;4.53;;;;;;;;;;5126111;27;20051;-73
2023/04/30 06:50:30;;;;;;;6.60;4.85;;;;;;;;;;5126329;27;20039;-73
2023/04/30 06:53:00;;;;;;;7.18;4.60;;;;;;;;;;5125164;27;20070;-74
2023/04/30 06:55:30;;;;;;;5.93;4.10;;;;;;;;;;5126611;27;20396;-73
2023/04/30 06:58:00;;;;;;;8.30;5.50;;;;;;;;;;5125744;27;20058;-74
2023/04/30 07:00:32;;;;;;;8.63;5.32;;;;;;;;;;5124665;27;20054;-73
2023/04/30 07:03:03;;;;;;;7.60;4.38;;;;;;;;;;5125665;27;20047;-73
2023/04/30 07:05:37;;;;;;;6.75;4.55;;;;;;;;;;5126191;27;20078;-73
2023/04/30 07:08:07;;;;;;;9.70;5.07;;;;;;;;;;5126179;27;20047;-74
2023/04/30 07:10:38;;;;;;;7.32;4.97;;;;;;;;;;5126763;27;20047;-74
2023/04/30 07:13:08;;;;;;;5.93;4.47;;;;;;;;;;5126014;27;20586;-73
2023/04/30 07:15:40;;;;;;;8.93;4.50;;;;;;;;;;5125867;27;20050;-73
2023/04/30 07:18:11;;;;;;;10.63;5.57;;;;;;;;;;5124390;27;20051;-75
2023/04/30 07:20:41;;;;;;;9.82;4.65;;;;;;;;;;5126019;27;20121;-74
2023/04/30 07:23:11;;;;;;;7.05;5.35;;;;;;;;;;5125553;27;20051;-73
2023/04/30 07:25:41;;;;;;;8.82;4.50;;;;;;;;;;5125844;27;20039;-73
2023/04/30 07:28:14;;;;;;;5.85;5.05;;;;;;;;;;5126598;27;20035;-74
2023/04/30 07:30:44;;;;;;;7.43;4.30;;;;;;;;;;5125864;27;20035;-73
2023/04/30 07:33:14;;;;;;;7.50;5.20;;;;;;;;;;5124399;28;20055;-77
2023/04/30 07:35:44;;;;;;;7.88;4.32;;;;;;;;;;5124496;27;20418;-74
2023/04/30 07:38:16;;;;;;;5.95;4.28;;;;;;;;;;5125497;28;20047;-73
2023/04/30 07:40:46;;;;;;;8.23;4.22;;;;;;;;;;5125656;28;20407;-74
2023/04/30 07:43:16;;;;;;;8.13;4.43;;;;;;;;;;5107966;28;20486;-74
2023/04/30 07:45:48;;;;;;;6.82;4.25;;;;;;;;;;5126483;28;20051;-73
2023/04/30 07:48:21;;;;;;;6.50;4.47;;;;;;;;;;5125320;28;20054;-73
2023/04/30 07:50:51;;;;;;;4.88;4.10;;;;;;;;;;5126015;28;20046;-73
2023/04/30 07:53:22;;;;;;;10.95;5.10;;;;;;;;;;5124412;28;20532;-73
2023/04/30 07:55:52;;;;;;;8.40;5.50;;;;;;;;;;5125548;28;20591;-74
2023/04/30 07:58:22;;;;;;;6.78;4.68;;;;;;;;;;5125735;28;20047;-74
2023/04/30 08:00:53;;;;;;;6.03;4.72;;;;;;;;;;5125380;28;20055;-74
2023/04/30 08:03:22;;;;;;;7.68;4.75;;;;;;;;;;5125534;28;20055;-73
2023/04/30 08:05:53;;;;;;;5.75;4.82;;;;;;;;;;5125130;28;20043;-74
2023/04/30 08:08:23;;;;;;;5.20;4.05;;;;;;;;;;5125160;28;20047;-73
2023/04/30 08:10:54;;;;;;;11.05;5.10;;;;;;;;;;5125044;28;20058;-73
2023/04/30 08:13:24;;;;;;;7.32;5.32;;;;;;;;;;5125179;28;20532;-74
2023/04/30 08:15:54;;;;;;;7.22;4.55;;;;;;;;;;5124885;28;20062;-73
2023/04/30 08:18:25;;;;;;;6.75;4.65;;;;;;;;;;5125798;28;20054;-74
2023/04/30 08:20:56;;;;;;;5.97;4.65;;;;;;;;;;5125471;28;20501;-73
2023/04/30 08:23:27;;;;;;;6.78;4.68;;;;;;;;;;5123761;28;20055;-74
2023/04/30 08:25:57;;;;;;;5.20;4.18;;;;;;;;;;5125121;28;20054;-74
2023/04/30 08:28:27;;;;;;;8.13;4.22;;;;;;;;;;5124119;27;20047;-73
2023/04/30 08:30:57;;;;;;;5.78;4.05;;;;;;;;;;5129328;27;20062;-73
2023/04/30 08:33:28;;;;;;;6.45;4.53;;;;;;;;;;5128991;27;20043;-74
2023/04/30 08:35:58;;;;;;;6.40;3.38;;;;;;;;;;5127746;27;20074;-73
2023/04/30 08:38:28;;;;;;;8.30;4.43;;;;;;;;;;5127494;27;20421;-74
2023/04/30 08:41:12;;;;;;;6.00;4.13;;;;;;;;;;5127257;27;20058;-73
2023/04/30 08:43:44;;;;;;;5.82;3.75;;;;;;;;;;5128860;27;20051;-74
2023/04/30 08:46:16;;;;;;;8.02;4.80;;;;;;;;;;5129022;27;20528;-73
2023/04/30 08:48:47;;;;;;;7.40;5.20;;;;;;;;;;5128441;27;20043;-73
2023/04/30 08:51:17;;;;;;;6.47;4.38;;;;;;;;;;5129005;27;20416;-73
2023/04/30 08:53:50;;;;;;;5.75;4.50;;;;;;;;;;5129116;27;20568;-74
2023/04/30 08:56:21;;;;;;;5.53;4.15;;;;;;;;;;5128453;27;20062;-74
2023/04/30 08:58:53;;;;;;;5.72;4.20;;;;;;;;;;5128745;27;20519;-73
2023/04/30 09:01:24;;;;;;;8.65;3.85;;;;;;;;;;5128632;27;20055;-74
2023/04/30 09:03:55;;;;;;;7.15;4.70;;;;;;;;;;5128827;27;20055;-73
2023/04/30 09:06:26;;;;;;;10.18;4.72;;;;;;;;;;5128023;27;20055;-73
2023/04/30 09:08:56;;;;;;;10.85;4.22;;;;;;;;;;5127998;27;20036;-74
2023/04/30 09:11:31;;;;;;;7.10;4.25;;;;;;;;;;5128383;27;20058;-74
2023/04/30 09:14:02;;;;;;;8.30;3.47;;;;;;;;;;5128360;27;20101;-73
2023/04/30 09:16:48;;;;;;;6.35;3.75;;;;;;;;;;5128027;27;20513;-74
2023/04/30 09:19:30;;;;;;;6.95;4.50;;;;;;;;;;5128300;27;20051;-73
2023/04/30 09:22:19;;;;;;;7.50;4.35;;;;;;;;;;5128455;27;20051;-74
2023/04/30 09:24:52;;;;;;;6.03;4.10;;;;;;;;;;5128392;27;20079;-74
2023/04/30 09:27:22;;;;;;;8.50;4.28;;;;;;;;;;5127880;27;20481;-73
2023/04/30 09:29:58;;;;;;;5.90;4.35;;;;;;;;;;5128263;27;20043;-73
2023/04/30 09:32:28;;;;;;;;;;;;;;;;;;5128294;27;20043;-73
2023/04/30 09:34:58;;;;;;;6.50;3.65;;;;;;;;;;5128128;27;20305;-74
2023/04/30 09:37:37;;;;;;;9.55;5.03;;;;;;;;;;5128156;27;20047;-73
2023/04/30 09:40:10;;;;;;;6.15;4.85;;;;;;;;;;5128211;27;20520;-74
2023/04/30 09:42:40;;;;;;;6.35;4.65;;;;;;;;;;5127600;27;20066;-73
2023/04/30 09:45:11;;;;;;;8.43;3.78;;;;;;;;;;5127729;27;20421;-74
2023/04/30 09:47:42;;;;;;;7.25;4.60;;;;;;;;;;5127746;27;20521;-74
2023/04/30 09:50:13;;;;;;;5.95;4.03;;;;;;;;;;5126824;27;20494;-74
2023/04/30 09:53:07;;;;;;;10.40;4.28;;;;;;;;;;5127909;27;20047;-74
2023/04/30 09:55:40;;;;;;;8.90;3.78;;;;;;;;;;5123526;27;20062;-74
2023/04/30 09:58:12;;;;;;;5.65;3.53;;;;;;;;;;5127184;27;20821;-74
2023/04/30 10:00:45;;;;;;;5.68;4.28;;;;;;;;;;5127076;27;20505;-74
2023/04/30 10:03:16;;;;;;;8.52;4.40;;;;;;;;;;5126886;27;20050;-74
2023/04/30 10:05:48;;;;;;;8.48;4.03;;;;;;;;;;5127340;27;20050;-73
2023/04/30 10:08:21;;;;;;;9.40;4.35;;;;;;;;;;5127284;27;20057;-74
2023/04/30 10:11:01;;;;;;;7.95;4.88;;;;;;;;;;5127740;27;20035;-73
2023/04/30 10:13:53;;;;;;;7.05;4.97;;;;;;;;;;5126979;27;20043;-72
2023/04/30 10:16:39;;;;;;;5.57;3.78;;;;;;;;;;5126285;27;20398;-73
2023/04/30 10:19:17;;;;;;;6.78;4.93;;;;;;;;;;5126913;27;20058;-73
2023/04/30 10:21:47;;;;;;;7.28;4.05;;;;;;;;;;5127009;27;20051;-73
2023/04/30 10:24:20;;;;;;;10.52;4.90;;;;;;;;;;5126324;27;20058;-73
2023/04/30 10:26:50;;;;;;;6.88;4.60;;;;;;;;;;5126634;27;20043;-73
2023/04/30 10:29:21;;;;;;;6.78;4.65;;;;;;;;;;5127153;27;20042;-73
2023/04/30 10:31:53;;;;;;;6.10;4.85;;;;;;;;;;5127331;27;20047;-74
2023/04/30 10:34:44;;;;;;;6.05;4.55;;;;;;;;;;5126693;27;20054;-73
2023/04/30 10:48:54;;;;;;;6.43;4.90;;;;;;;;;;5123108;27;20441;-74
2023/04/30 10:51:45;;;;;;;6.47;4.07;;;;;;;;;;5123476;28;20821;-76
2023/04/30 10:54:19;;;;;;;5.35;4.32;;;;;;;;;;5123234;28;20043;-73
2023/04/30 10:56:51;;;;;;;4.70;3.90;;;;;;;;;;5121923;27;20063;-76
2023/04/30 10:59:23;;;;;;;6.63;4.13;;;;;;;;;;5122789;28;20445;-76
2023/04/30 11:02:00;;;;;;;4.82;3.80;;;;;;;;;;5122862;28;20063;-73
2023/04/30 11:04:30;;;;;;;9.55;3.28;;;;;;;;;;5122824;28;20044;-75
2023/04/30 11:07:08;;;;;;;5.80;3.88;;;;;;;;;;5122532;28;20791;-75
2023/04/30 11:09:47;;;;;;;6.82;4.15;;;;;;;;;;5122786;28;20049;-73
2023/04/30 11:12:27;;;;;;;9.60;4.55;;;;;;;;;;5122606;28;20054;-73
2023/04/30 11:15:07;;;;;;;5.95;4.00;;;;;;;;;;5122947;28;20482;-74
2023/04/30 11:17:38;;;;;;;7.82;3.75;;;;;;;;;;5122393;28;20054;-74
2023/04/30 11:20:13;;;;;;;4.90;3.97;;;;;;;;;;5122748;28;20047;-75
2023/04/30 11:22:45;;;;;;;6.25;2.90;;;;;;;;;;5122560;28;20044;-73
2023/04/30 11:25:22;;;;;;;6.95;2.75;;;;;;;;;;5122267;28;20054;-74
2023/04/30 11:27:55;;;;;;;6.32;2.95;;;;;;;;;;5121913;28;20044;-74
2023/04/30 11:30:28;;;;;;;4.07;3.00;;;;;;;;;;5121987;28;20043;-73
2023/04/30 11:33:01;;;;;;;5.57;2.88;;;;;;;;;;5121005;28;20039;-76
2023/04/30 11:35:31;;;;;;;3.67;2.50;;;;;;;;;;5122462;28;20040;-75
2023/04/30 11:38:04;;;;;;;2.47;2.13;;;;;;;;;;5122514;28;20417;-74
2023/04/30 11:40:35;;;;;;;3.92;2.50;;;;;;;;;;5122362;28;20481;-73
2023/04/30 11:43:06;;;;;;;3.72;2.47;;;;;;;;;;5122178;28;20401;-74
2023/04/30 11:45:38;;;;;;;9.90;2.70;;;;;;;;;;5122192;28;20043;-74
2023/04/30 11:48:13;;;;;;;6.85;2.53;;;;;;;;;;5117355;28;20059;-74
2023/04/30 11:50:44;;;;;;;5.00;1.92;;;;;;;;;;5109080;28;20383;-74
2023/04/30 11:53:15;;;;;;;4.32;2.30;;;;;;;;;;5108666;28;20047;-76
2023/04/30 11:55:45;;;;;;;7.90;2.20;;;;;;;;;;5108508;28;20048;-76
2023/04/30 11:58:15;;;;;;;5.90;2.20;;;;;;;;;;5108275;28;20044;-75
2023/04/30 12:00:48;;;;;;;3.08;2.05;;;;;;;;;;5106291;28;20105;-75
2023/04/30 12:03:21;;;;;;;3.00;1.92;;;;;;;;;;5106998;28;20413;-74
2023/04/30 12:05:51;;;;;;;1.98;1.70;;;;;;;;;;5107790;28;20051;-75
2023/04/30 12:08:21;;;;;;;1.90;1.80;;;;;;;;;;5107605;28;20054;-73
2023/04/30 12:10:52;;;;;;;3.22;1.92;;;;;;;;;;5108543;28;20054;-76
2023/04/30 12:13:23;;;;;;;5.40;1.88;;;;;;;;;;5107597;28;20645;-74
2023/04/30 12:16:00;;;;;;;4.75;4.25;;;;;;;;;;5107610;28;20055;-75
2023/04/30 12:18:32;;;;;;;7.47;2.53;;;;;;;;;;5107627;28;20048;-75
2023/04/30 12:21:03;;;;;;;7.00;2.03;;;;;;;;;;5107528;28;20039;-74
2023/04/30 12:23:35;;;;;;;4.93;1.60;;;;;;;;;;5107582;28;20374;-75
2023/04/30 12:26:05;;;;;;;7.13;2.55;;;;;;;;;;5107493;28;20050;-76
2023/04/30 12:28:35;;;;;;;3.10;2.00;;;;;;;;;;5108155;28;20048;-76
2023/04/30 12:31:06;;;;;;;4.90;2.35;;;;;;;;;;5107793;28;20055;-73
2023/04/30 12:33:36;;;;;;;4.95;1.60;;;;;;;;;;5107663;28;20056;-74
2023/04/30 12:36:10;;;;;;;3.25;2.00;;;;;;;;;;5106624;28;20043;-76
2023/04/30 12:38:43;;;;;;;3.40;2.00;;;;;;;;;;5107128;28;20040;-75
2023/04/30 12:41:16;;;;;;;6.75;1.73;;;;;;;;;;5107353;28;20074;-76
2023/04/30 12:43:50;;;;;;;3.03;1.50;;;;;;;;;;5106901;28;20043;-75
2023/04/30 12:46:26;;;;;;;4.57;1.90;;;;;;;;;;5106256;28;20057;-76
2023/04/30 12:48:58;;;;;;;3.20;2.33;;;;;;;;;;5107437;28;20043;-76
2023/04/30 12:51:29;;;;;;;2.13;1.55;;;;;;;;;;5105901;28;20048;-74
2023/04/30 12:53:59;;;;;;;5.38;1.58;;;;;;;;;;5106837;28;20044;-74
2023/04/30 12:56:30;;;;;;;1.95;1.50;;;;;;;;;;5106418;28;20070;-75
2023/04/30 12:59:00;;;;;;;5.35;1.80;;;;;;;;;;5104393;28;20051;-76
2023/04/30 13:01:32;;;;;;;5.95;1.70;;;;;;;;;;5105841;28;20047;-75
2023/04/30 13:04:03;;;;;;;5.05;1.40;;;;;;;;;;5085140;28;20062;-73
2023/04/30 13:06:34;;;;;;;2.25;1.50;;;;;;;;;;5086105;28;20036;-75
2023/04/30 13:09:05;;;;;;;3.92;2.05;;;;;;;;;;5086655;28;20048;-75
2023/04/30 13:11:35;;;;;;;3.95;1.70;;;;;;;;;;5084075;28;20039;-78
2023/04/30 13:14:05;;;;;;;5.68;1.60;;;;;;;;;;5086154;28;20494;-74
2023/04/30 13:16:36;;;;;;;6.50;1.75;;;;;;;;;;5086539;28;20421;-72
2023/04/30 13:19:08;;;;;;;2.63;1.10;;;;;;;;;;5086208;28;20406;-75
2023/04/30 13:21:38;;;;;;;2.70;1.38;;;;;;;;;;5085982;28;20070;-76
2023/04/30 13:24:09;;;;;;;4.30;1.63;;;;;;;;;;5086093;28;20502;-74
2023/04/30 13:26:40;;;;;;;2.78;1.35;;;;;;;;;;5086114;28;20146;-73
2023/04/30 13:29:11;;;;;;;3.15;1.30;;;;;;;;;;5086105;28;20055;-75
2023/04/30 13:31:43;;;;;;;2.70;1.40;;;;;;;;;;5084759;28;20074;-74
2023/04/30 13:34:15;;;;;;;1.75;1.30;;;;;;;;;;5086077;28;20401;-74
2023/04/30 13:36:45;;;;;;;2.65;1.13;;;;;;;;;;5085772;28;20052;-75
2023/04/30 13:39:15;;;;;;;6.68;3.40;;;;;;;;;;5085407;28;20052;-74
2023/04/30 13:41:47;;;;;;;5.65;3.38;;;;;;;;;;5067953;28;20498;-74
2023/04/30 13:44:19;;;;;;;4.70;2.38;;;;;;;;;;5085587;28;20044;-72
2023/04/30 13:46:49;;;;;;;2.10;1.35;;;;;;;;;;5085514;28;20422;-75
2023/04/30 13:49:19;;;;;;;1.90;1.30;;;;;;;;;;5085891;28;21238;-74
2023/04/30 13:51:49;;;;;;;6.88;1.75;;;;;;;;;;5085516;28;20048;-73
2023/04/30 13:54:19;;;;;;;8.73;1.80;;;;;;;;;;5085621;28;20047;-74
2023/04/30 13:56:51;;;;;;;2.55;1.20;;;;;;;;;;5085490;28;20059;-75
2023/04/30 13:59:22;;;;;;;1.90;1.30;;;;;;;;;;5085420;28;20062;-74
2023/04/30 14:01:52;;;;;;;2.33;1.30;;;;;;;;;;5085133;28;20048;-74
2023/04/30 14:04:23;;;;;;;6.10;1.70;;;;;;;;;;5086646;28;20048;-74
2023/04/30 14:06:58;;;;;;;3.45;1.60;;;;;;;;;;5085960;28;20044;-75
2023/04/30 14:09:29;;;;;;;3.10;1.50;;;;;;;;;;5085186;28;20052;-73
2023/04/30 14:11:59;;;;;;;7.03;1.42;;;;;;;;;;5084031;28;20059;-75
2023/04/30 14:14:29;;;;;;;2.05;1.17;;;;;;;;;;5085301;28;20421;-73
2023/04/30 14:17:03;;;;;;;3.13;1.60;;;;;;;;;;5085334;28;20052;-76
2023/04/30 14:19:39;;;;;;;3.05;1.25;;;;;;;;;;5086407;28;20055;-74
2023/04/30 14:22:12;;;;;;;3.75;1.60;;;;;;;;;;5084542;28;20047;-75
2023/04/30 14:24:53;;;;;;;2.40;1.60;;;;;;;;;;5085910;28;20524;-74
2023/04/30 14:27:24;;;;;;;4.82;1.42;;;;;;;;;;5084648;28;20047;-75
2023/04/30 14:29:56;;;;;;;2.15;1.40;;;;;;;;;;5084476;28;20505;-74
2023/04/30 14:32:26;;;;;;;2.50;1.65;;;;;;;;;;5088670;28;20054;-74
2023/04/30 14:34:57;;;;;;;1.38;1.17;;;;;;;;;;5107120;28;20032;-74
2023/04/30 14:37:28;;;;;;;2.05;1.50;;;;;;;;;;5107523;28;20040;-74
2023/04/30 14:40:04;;;;;;;2.50;1.20;;;;;;;;;;5099446;28;20052;-76
2023/04/30 14:42:35;;;;;;;3.10;1.65;;;;;;;;;;5090944;28;20055;-74
2023/04/30 14:45:06;;;;;;;4.20;1.50;;;;;;;;;;5087675;28;20533;-74
2023/04/30 14:47:37;;;;;;;3.75;1.65;;;;;;;;;;5084463;28;20536;-74
2023/04/30 14:50:11;;;;;;;3.13;1.60;;;;;;;;;;5099842;28;20402;-73
2023/04/30 14:52:41;;;;;;;3.17;1.52;;;;;;;;;;5085465;28;20498;-77
2023/04/30 14:55:14;;;;;;;1.65;1.20;;;;;;;;;;5085709;28;20055;-75
2023/04/30 14:57:45;;;;;;;2.88;1.30;;;;;;;;;;5086561;28;20624;-73
2023/04/30 15:00:19;;;;;;;1.65;1.40;;;;;;;;;;5104062;28;20082;-75
2023/04/30 15:02:50;;;;;;;1.58;1.20;;;;;;;;;;5105083;28;20497;-76
2023/04/30 15:05:21;;;;;;;2.13;1.30;;;;;;;;;;5103294;28;20047;-76
2023/04/30 15:07:51;;;;;;;1.90;1.40;;;;;;;;;;5105595;28;20062;-75
2023/04/30 15:10:21;;;;;;;2.45;1.65;;;;;;;;;;5102962;28;20052;-76
2023/04/30 15:12:53;;;;;;;3.72;1.75;;;;;;;;;;5105575;28;20044;-76
2023/04/30 15:15:28;;;;;;;2.20;1.67;;;;;;;;;;5104337;28;20550;-75
2023/04/30 15:18:02;;;;;;;1.60;1.50;;;;;;;;;;5104989;28;20739;-75
2023/04/30 15:20:32;;;;;;;2.25;1.50;;;;;;;;;;5104695;28;20531;-75
2023/04/30 15:23:03;;;;;;;3.45;1.52;;;;;;;;;;5105268;28;20051;-74